Time;durP1;ratioP1;P1;durP2;ratioP2;P2;SDS_P1;SDS_P2;PMS_P1;PMS_P2;Temp;Humidity;BMP_temperature;BMP_pressure;BME280_temperature;BME280_humidity;BME280_pressure;Samples;Min_cycle;Max_cycle;Signal;HPM_P1;HPM_P2
2022/04/09 00:00:39;;;;;;;9.77;5.93;;;;;;;0.88;100.00;98777.91;4987098;28;20045;-79
2022/04/09 00:03:06;;;;;;;8.63;6.03;;;;;;;0.96;100.00;98777.81;4989602;28;20049;-79
2022/04/09 00:05:50;;;;;;;9.43;5.70;;;;;;;0.88;100.00;98785.69;4963956;28;20046;-79
2022/04/09 00:08:29;;;;;;;11.80;5.70;;;;;;;0.84;100.00;98786.59;4977237;28;20038;-79
2022/04/09 00:10:56;;;;;;;7.90;5.73;;;;;;;0.85;100.00;98785.75;4960492;28;20051;-79
2022/04/09 00:13:23;;;;;;;7.37;5.13;;;;;;;0.79;100.00;98788.41;4938072;28;20588;-80
2022/04/09 00:15:50;;;;;;;9.37;6.03;;;;;;;0.87;100.00;98783.13;4937996;28;20397;-79
2022/04/09 00:18:17;;;;;;;9.10;5.57;;;;;;;0.89;100.00;98782.22;4957242;28;20057;-79
2022/04/09 00:20:44;;;;;;;7.50;5.03;;;;;;;0.89;100.00;98787.41;4982089;28;20451;-79
2022/04/09 00:23:13;;;;;;;7.97;5.43;;;;;;;0.88;100.00;98796.09;4973096;28;20519;-80
2022/04/09 00:25:46;;;;;;;7.20;4.70;;;;;;;0.91;100.00;98793.44;4957472;28;20042;-79
2022/04/09 00:28:15;;;;;;;;;;;;;;;0.87;100.00;98791.78;4961780;28;20039;-80
2022/04/09 00:30:41;;;;;;;6.43;4.20;;;;;;;0.89;100.00;98792.59;4939933;28;19930;-79
2022/04/09 00:33:09;;;;;;;8.47;4.77;;;;;;;0.94;100.00;98801.22;4972242;28;20039;-79
2022/04/09 00:35:35;;;;;;;8.33;4.30;;;;;;;0.98;100.00;98797.69;4957748;28;20050;-78
2022/04/09 00:38:04;;;;;;;5.70;4.07;;;;;;;0.95;100.00;98808.16;4975575;28;20039;-79
2022/04/09 00:40:32;;;;;;;7.17;3.83;;;;;;;0.95;100.00;98796.88;4944216;28;20137;-79
2022/04/09 00:43:02;;;;;;;5.13;4.20;;;;;;;0.94;100.00;98797.78;4974107;28;20035;-80
2022/04/09 00:45:34;;;;;;;5.93;4.30;;;;;;;0.96;100.00;98794.25;4938299;28;20058;-79
2022/04/09 00:48:01;;;;;;;5.23;3.40;;;;;;;0.94;100.00;98801.22;4976394;28;20402;-79
2022/04/09 00:50:30;;;;;;;6.93;4.23;;;;;;;0.94;100.00;98803.84;4992011;28;20053;-79
2022/04/09 00:52:58;;;;;;;4.97;4.00;;;;;;;0.96;100.00;98798.59;4974691;28;20113;-79
2022/04/09 00:58:14;;;;;;;6.60;4.00;;;;;;;1.01;100.00;98802.88;4970795;28;20046;-79
2022/04/09 01:00:48;;;;;;;5.80;4.30;;;;;;;1.01;100.00;98805.47;4979567;28;20081;-79
2022/04/09 01:03:19;;;;;;;10.53;4.37;;;;;;;0.99;100.00;98812.41;4984245;28;20038;-79
2022/04/09 01:05:48;;;;;;;6.17;4.10;;;;;;;0.99;100.00;98809.81;4970759;28;20066;-79
2022/04/09 01:08:19;;;;;;;9.67;4.07;;;;;;;1.03;100.00;98814.13;4973932;28;20118;-80
2022/04/09 01:10:47;;;;;;;5.50;3.90;;;;;;;0.93;100.00;98809.06;4949268;28;20054;-79
2022/04/09 01:13:19;;;;;;;5.83;3.47;;;;;;;0.88;100.00;98822.09;4943302;28;20061;-80
2022/04/09 01:15:46;;;;;;;7.03;3.50;;;;;;;0.87;100.00;98817.78;4991024;28;20046;-79
2022/04/09 01:18:15;;;;;;;8.10;4.27;;;;;;;0.86;100.00;98820.41;4963805;28;20035;-79
2022/04/09 01:20:43;;;;;;;6.30;3.77;;;;;;;0.90;100.00;98822.94;4959678;28;20042;-79
2022/04/09 01:23:10;;;;;;;7.00;4.00;;;;;;;0.89;100.00;98829.00;4959447;28;20049;-79
2022/04/09 01:25:38;;;;;;;8.03;3.90;;;;;;;0.89;100.00;98826.41;4955979;28;20435;-79
2022/04/09 01:28:07;;;;;;;5.37;3.73;;;;;;;0.92;100.00;98817.69;4957769;28;20026;-79
2022/04/09 01:30:34;;;;;;;6.43;4.07;;;;;;;0.92;100.00;98831.56;4979982;28;20046;-79
2022/04/09 01:33:00;;;;;;;9.23;3.97;;;;;;;0.95;100.00;98833.28;4986656;28;20558;-79
2022/04/09 01:35:29;;;;;;;7.33;4.00;;;;;;;0.96;100.00;98840.22;4992577;28;20074;-78
2022/04/09 01:38:09;;;;;;;7.60;4.53;;;;;;;0.96;100.00;98843.66;4939231;28;20129;-79
2022/04/09 01:40:36;;;;;;;5.40;3.70;;;;;;;0.93;100.00;98842.84;4926694;28;20053;-79
2022/04/09 01:43:05;;;;;;;5.63;4.03;;;;;;;1.04;100.00;98849.66;4972131;28;20495;-80
2022/04/09 01:45:32;;;;;;;7.17;4.47;;;;;;;1.08;100.00;98858.25;4943616;28;20049;-79
2022/04/09 01:48:02;;;;;;;6.77;4.57;;;;;;;1.06;100.00;98858.28;4941085;28;20046;-80
2022/04/09 01:50:33;;;;;;;6.63;4.17;;;;;;;1.08;100.00;98861.72;4966158;28;20056;-79
2022/04/09 01:53:06;;;;;;;5.53;3.90;;;;;;;1.10;100.00;98865.19;4961755;28;20443;-79
2022/04/09 01:55:37;;;;;;;6.30;4.30;;;;;;;1.21;100.00;98872.84;4970449;28;20227;-79
2022/04/09 01:58:04;;;;;;;7.97;4.60;;;;;;;1.20;100.00;98868.53;4977745;28;20061;-79
2022/04/09 02:00:34;;;;;;;8.33;4.50;;;;;;;1.27;100.00;98883.19;4956903;28;20057;-78
2022/04/09 02:03:00;;;;;;;8.63;4.33;;;;;;;1.27;100.00;98880.59;4973086;28;20515;-80
2022/04/09 02:05:27;;;;;;;6.93;4.03;;;;;;;1.37;100.00;98889.16;4951524;28;20038;-79
2022/04/09 02:07:57;;;;;;;7.30;4.07;;;;;;;1.50;100.00;98887.25;4973456;28;20088;-79
2022/04/09 02:10:27;;;;;;;9.57;4.43;;;;;;;1.49;100.00;98883.78;4940286;28;20080;-79
2022/04/09 02:12:54;;;;;;;9.90;4.40;;;;;;;1.54;100.00;98888.94;4961813;28;20511;-78
2022/04/09 02:15:21;;;;;;;6.30;3.70;;;;;;;1.55;100.00;98901.94;4940398;28;20093;-79
2022/04/09 02:17:48;;;;;;;9.33;4.33;;;;;;;1.50;100.00;98888.09;4964580;28;20042;-79
2022/04/09 02:20:17;;;;;;;9.63;3.80;;;;;;;1.52;100.00;98888.13;4951627;28;20039;-79
2022/04/09 02:22:49;;;;;;;8.10;4.63;;;;;;;1.58;100.00;98893.22;4967456;28;20630;-79
2022/04/09 02:25:18;;;;;;;5.57;3.87;;;;;;;1.51;100.00;98897.63;4953480;28;20058;-79
2022/04/09 02:27:45;;;;;;;8.50;3.57;;;;;;;1.47;100.00;98908.13;4959267;28;20542;-79
2022/04/09 02:30:12;;;;;;;7.40;4.47;;;;;;;1.46;100.00;98909.84;4985040;28;20047;-79
2022/04/09 02:32:52;;;;;;;8.13;4.00;;;;;;;1.45;100.00;98905.53;4925100;28;20512;-79
2022/04/09 02:35:31;;;;;;;9.07;4.90;;;;;;;1.50;100.00;98903.72;4947298;28;20049;-79
2022/04/09 02:37:58;;;;;;;5.27;3.40;;;;;;;1.47;100.00;98911.56;4971262;28;20046;-79
2022/04/09 02:40:25;;;;;;;8.67;4.50;;;;;;;1.49;100.00;98915.00;4968574;28;20128;-79
2022/04/09 02:42:56;;;;;;;9.13;3.90;;;;;;;1.52;100.00;98922.81;4970787;28;20038;-79
2022/04/09 02:45:24;;;;;;;9.20;4.20;;;;;;;1.52;100.00;98928.00;4958118;28;20698;-79
2022/04/09 02:47:55;;;;;;;6.10;3.60;;;;;;;1.51;100.00;98926.25;4947627;28;20066;-79
2022/04/09 02:50:24;;;;;;;8.17;4.03;;;;;;;1.43;100.00;98925.53;4962987;28;20491;-78
2022/04/09 02:52:51;;;;;;;8.63;4.10;;;;;;;1.42;100.00;98926.38;4940633;28;20058;-80
2022/04/09 02:55:19;;;;;;;7.53;3.60;;;;;;;1.42;100.00;98928.97;4969586;28;20039;-79
2022/04/09 02:57:48;;;;;;;5.80;3.70;;;;;;;1.51;100.00;98941.88;4953406;28;20045;-79
2022/04/09 03:00:16;;;;;;;7.33;3.73;;;;;;;1.43;100.00;98941.13;4962616;28;20078;-79
2022/04/09 03:02:43;;;;;;;5.73;4.03;;;;;;;1.39;100.00;98944.63;4948600;28;20055;-80
2022/04/09 03:05:13;;;;;;;7.20;4.00;;;;;;;1.35;100.00;98946.41;4954431;28;20058;-79
2022/04/09 03:07:40;;;;;;;7.73;4.27;;;;;;;1.38;100.00;98958.53;4949898;28;20049;-79
